createdAt,value
2018-08-24T07:45:46.896Z,6.40
2018-08-24T07:48:15.074Z,7.10
2018-08-24T07:50:43.336Z,5.97
2018-08-24T07:53:11.367Z,7.47
2018-08-24T07:55:39.314Z,6.23
2018-08-24T07:58:07.664Z,6.60
2018-08-24T08:00:35.586Z,6.70
2018-08-24T08:03:03.777Z,7.30
2018-08-24T08:05:31.713Z,6.57
2018-08-24T08:07:59.884Z,7.33
2018-08-24T08:10:33.157Z,6.50
2018-08-24T08:13:01.334Z,7.10
2018-08-24T08:15:29.533Z,6.90
2018-08-24T08:17:57.469Z,7.77
2018-08-24T08:20:25.711Z,6.87
2018-08-24T08:22:53.957Z,6.60
2018-08-24T08:25:22.135Z,7.40
2018-08-24T08:27:50.304Z,6.90
2018-08-24T08:30:18.255Z,7.67
2018-08-24T08:32:46.424Z,7.20
2018-08-24T08:35:14.607Z,6.90
2018-08-24T08:37:42.805Z,5.40
2018-08-24T08:40:10.957Z,6.30
2018-08-24T08:42:39.140Z,6.27
2018-08-24T08:45:07.125Z,5.97
2018-08-24T08:47:35.302Z,6.07
2018-08-24T08:50:03.234Z,5.20
2018-08-24T08:52:31.179Z,5.87
2018-08-24T08:54:59.365Z,5.30
2018-08-24T08:57:27.565Z,6.30
2018-08-24T08:59:55.754Z,5.77
2018-08-24T09:02:23.974Z,6.17
2018-08-24T09:04:51.957Z,6.10
2018-08-24T09:07:19.881Z,5.20
2018-08-24T09:09:48.094Z,5.23
2018-08-24T09:12:16.267Z,5.23
2018-08-24T09:14:44.456Z,4.43
2018-08-24T09:18:19.708Z,4.30
2018-08-24T09:20:53.339Z,5.03
2018-08-24T09:23:26.743Z,4.60
2018-08-24T09:26:00.321Z,5.30
2018-08-24T09:28:35.767Z,4.20
2018-08-24T09:31:09.072Z,4.70
2018-08-24T09:33:37.272Z,5.97
2018-08-24T09:36:10.707Z,5.93
2018-08-24T09:38:38.880Z,5.70
2018-08-24T09:41:07.031Z,4.80
2018-08-24T09:43:40.484Z,5.00
2018-08-24T09:46:08.933Z,3.70
2018-08-24T09:48:42.568Z,5.17
2018-08-24T09:51:16.004Z,6.00
2018-08-24T09:53:49.628Z,5.17
2018-08-24T09:56:17.860Z,6.73
2018-08-24T09:58:46.033Z,7.23
2018-08-24T10:01:19.569Z,5.80
2018-08-24T10:03:53.245Z,5.20
2018-08-24T10:06:26.669Z,7.90
2018-08-24T10:08:54.788Z,6.97
2018-08-24T10:11:22.941Z,8.43
2018-08-24T10:13:51.173Z,9.03
2018-08-24T10:16:19.373Z,10.37
2018-08-24T10:18:47.568Z,9.40
2018-08-24T10:21:15.811Z,9.57
2018-08-24T10:23:43.953Z,8.97
2018-08-24T10:26:12.124Z,7.40
2018-08-24T10:28:40.309Z,7.60
2018-08-24T10:31:08.452Z,6.57
2018-08-24T10:33:36.722Z,7.43
2018-08-24T10:36:04.816Z,7.20
2018-08-24T10:38:33.023Z,4.30
2018-08-24T10:41:01.267Z,4.70
2018-08-24T10:43:29.368Z,4.47
2018-08-24T10:45:57.583Z,4.63
2018-08-24T10:48:25.496Z,4.20
2018-08-24T10:50:53.544Z,4.10
2018-08-24T10:53:21.701Z,3.53
2018-08-24T10:55:49.971Z,4.00
2018-08-24T10:58:18.074Z,3.83
2018-08-24T11:00:46.252Z,3.60
2018-08-24T11:03:14.466Z,5.20
2018-08-24T11:05:42.676Z,4.10
2018-08-24T11:08:10.711Z,4.40
2018-08-24T11:10:38.869Z,3.57
2018-08-24T11:13:07.044Z,3.30
2018-08-24T11:15:36.165Z,3.40
2018-08-24T11:18:09.129Z,2.73
2018-08-24T11:20:38.682Z,3.00
2018-08-24T11:23:06.703Z,3.30
2018-08-24T11:25:34.626Z,3.20
2018-08-24T11:28:02.796Z,2.77
2018-08-24T11:30:30.962Z,3.07
2018-08-24T11:32:59.175Z,2.97
2018-08-24T11:35:27.150Z,3.50
2018-08-24T11:37:55.108Z,3.20
2018-08-24T11:40:23.396Z,3.60
2018-08-24T11:42:51.593Z,3.00
2018-08-24T11:45:19.866Z,3.60
2018-08-24T11:47:48.071Z,3.87
2018-08-24T11:50:16.249Z,3.13
2018-08-24T11:52:44.372Z,3.07
2018-08-24T11:55:12.318Z,3.30
2018-08-24T11:57:40.485Z,2.57
2018-08-24T12:00:08.740Z,2.47
2018-08-24T12:02:36.896Z,2.50
2018-08-24T12:05:05.649Z,3.23
2018-08-24T12:07:33.577Z,3.00
2018-08-24T12:10:01.776Z,3.47
2018-08-24T12:12:29.971Z,3.07
2018-08-24T12:14:58.144Z,2.97
2018-08-24T12:17:30.525Z,3.87
2018-08-24T12:19:58.693Z,3.60
2018-08-24T12:22:26.640Z,2.77
2018-08-24T12:24:54.844Z,2.80
2018-08-24T12:27:23.382Z,3.03
2018-08-24T12:29:51.332Z,2.33
2018-08-24T12:32:19.261Z,2.47
2018-08-24T12:34:47.497Z,3.03
2018-08-24T12:37:15.640Z,2.50
2018-08-24T12:39:43.816Z,3.07
2018-08-24T12:42:12.572Z,2.33
2018-08-24T12:44:41.386Z,3.03
2018-08-24T12:47:10.292Z,1.90
2018-08-24T12:49:38.472Z,2.30
2018-08-24T12:52:06.695Z,2.47
2018-08-24T12:54:34.880Z,2.30
2018-08-24T12:57:03.634Z,2.10
2018-08-24T12:59:31.841Z,1.60
2018-08-24T13:02:00.083Z,1.87
2018-08-24T13:04:28.281Z,1.70
2018-08-24T13:06:56.470Z,2.33
2018-08-24T13:09:24.658Z,1.90
2018-08-24T13:11:52.862Z,1.53
2018-08-24T13:14:21.061Z,1.43
2018-08-24T13:16:49.254Z,1.77
2018-08-24T13:19:17.214Z,1.63
2018-08-24T13:21:45.555Z,1.67
2018-08-24T13:24:13.797Z,1.63
2018-08-24T13:26:41.736Z,1.70
2018-08-24T13:29:09.905Z,1.73
2018-08-24T13:31:39.827Z,1.30
2018-08-24T13:34:08.001Z,1.40
2018-08-24T13:36:36.169Z,1.57
2018-08-24T13:39:07.541Z,1.33
2018-08-24T13:41:35.673Z,1.30
2018-08-24T13:44:03.842Z,1.37
2018-08-24T13:46:32.016Z,1.03
2018-08-24T13:49:00.196Z,1.40
2018-08-24T13:51:28.345Z,1.37
2018-08-24T13:53:56.512Z,1.27
2018-08-24T13:56:24.704Z,1.10
2018-08-24T13:58:52.899Z,1.53
2018-08-24T14:01:21.075Z,1.00
2018-08-24T14:03:49.246Z,1.40
2018-08-24T14:06:17.417Z,1.40
2018-08-24T14:08:45.595Z,1.27
2018-08-24T14:11:13.769Z,1.63
2018-08-24T14:13:41.949Z,0.70
2018-08-24T14:16:10.137Z,1.20
2018-08-24T14:18:38.089Z,1.50
2018-08-24T14:21:06.265Z,1.13
2018-08-24T14:23:34.425Z,1.53
2018-08-24T14:26:02.602Z,1.20
2018-08-24T14:28:31.533Z,1.33
2018-08-24T14:30:59.679Z,1.67
2018-08-24T14:33:27.612Z,0.90
2018-08-24T14:35:55.797Z,1.10
2018-08-24T14:38:24.089Z,1.73
2018-08-24T14:40:52.128Z,0.97
2018-08-24T14:43:20.356Z,1.37
2018-08-24T14:45:48.268Z,1.10
2018-08-24T14:48:16.542Z,1.40
2018-08-24T14:50:44.617Z,0.93
2018-08-24T14:53:12.784Z,1.30
2018-08-24T14:55:40.943Z,1.50
2018-08-24T14:58:08.880Z,1.50
2018-08-24T15:00:36.817Z,1.40
2018-08-24T15:03:05.004Z,1.43
2018-08-24T15:05:33.216Z,1.57
2018-08-24T15:08:01.430Z,1.20
2018-08-24T15:10:29.337Z,1.87
2018-08-24T15:12:57.516Z,1.40
2018-08-24T15:15:25.676Z,1.70
2018-08-24T15:17:53.841Z,1.30
2018-08-24T15:20:22.044Z,1.30
2018-08-24T15:22:50.263Z,1.63
2018-08-24T15:25:18.445Z,1.47
2018-08-24T15:27:46.629Z,1.70
2018-08-24T15:30:14.820Z,1.90
2018-08-24T15:32:42.740Z,1.50
2018-08-24T15:35:10.738Z,1.67
2018-08-24T15:37:38.908Z,1.00
2018-08-24T15:40:07.404Z,1.20
2018-08-24T15:42:35.604Z,1.50
2018-08-24T15:45:03.822Z,1.10
2018-08-24T15:47:32.004Z,1.23
2018-08-24T15:50:00.227Z,1.23
2018-08-24T15:52:28.445Z,1.30
2018-08-24T15:54:56.623Z,1.00
2018-08-24T15:57:24.527Z,1.10
2018-08-24T15:59:52.750Z,1.47
2018-08-24T16:02:20.944Z,1.00
2018-08-24T16:04:49.133Z,1.33
2018-08-24T16:07:17.316Z,1.37
2018-08-24T16:09:45.482Z,1.37
2018-08-24T16:12:13.670Z,1.37
2018-08-24T16:14:41.836Z,1.10
2018-08-24T16:17:09.780Z,1.00
2018-08-24T16:19:37.980Z,0.90
2018-08-24T16:22:06.214Z,1.07
2018-08-24T16:24:34.409Z,1.93
2018-08-24T16:27:08.109Z,0.90
2018-08-24T16:29:36.291Z,1.27
2018-08-24T16:32:11.178Z,1.60
2018-08-24T16:34:39.352Z,1.20
2018-08-24T16:37:07.964Z,2.03
2018-08-24T16:39:36.141Z,1.30
2018-08-24T16:42:04.334Z,1.20
2018-08-24T16:44:32.517Z,1.53
2018-08-24T16:47:00.688Z,1.70
2018-08-24T16:49:28.884Z,2.50
2018-08-24T16:51:57.038Z,1.57
2018-08-24T16:54:25.934Z,1.40
2018-08-24T16:56:54.108Z,1.30
2018-08-24T16:59:22.044Z,2.30
2018-08-24T17:01:50.214Z,2.10
2018-08-24T17:04:18.404Z,1.37
2018-08-24T17:06:46.577Z,1.30
2018-08-24T17:09:14.737Z,1.30
2018-08-24T17:11:42.665Z,1.50
2018-08-24T17:14:10.634Z,1.97
2018-08-24T17:16:39.135Z,1.07
2018-08-24T17:19:07.333Z,0.87
2018-08-24T17:21:35.532Z,1.30
2018-08-24T17:24:03.696Z,1.67
2018-08-24T17:26:31.853Z,1.20
2018-08-24T17:29:00.072Z,1.00
2018-08-24T17:31:28.239Z,1.10
2018-08-24T17:33:56.428Z,1.00
2018-08-24T17:36:24.596Z,1.50
2018-08-24T17:38:52.774Z,0.80
2018-08-24T17:41:20.978Z,1.13
2018-08-24T17:43:48.908Z,0.90
2018-08-24T17:46:17.122Z,1.47
2018-08-24T17:48:45.393Z,0.80
2018-08-24T17:51:13.564Z,1.43
2018-08-24T17:53:41.744Z,1.37
2018-08-24T17:56:09.925Z,1.33
2018-08-24T17:58:38.112Z,1.40
2018-08-24T18:01:06.330Z,1.10
2018-08-24T18:03:34.501Z,1.40
2018-08-24T18:06:02.660Z,1.00
2018-08-24T18:08:30.600Z,1.10
2018-08-24T18:10:58.789Z,1.67
2018-08-24T18:13:26.720Z,1.20
2018-08-24T18:15:54.904Z,1.20
2018-08-24T18:18:23.081Z,1.37
2018-08-24T18:20:51.045Z,1.17
2018-08-24T18:23:19.216Z,2.03
2018-08-24T18:25:47.427Z,1.20
2018-08-24T18:28:15.597Z,1.60
2018-08-24T18:30:43.753Z,1.90
2018-08-24T18:33:11.928Z,1.13
2018-08-24T18:35:39.838Z,1.40
2018-08-24T18:38:08.082Z,1.10
2018-08-24T18:40:35.982Z,1.40
2018-08-24T18:43:04.148Z,1.43
2018-08-24T18:45:32.088Z,1.13
2018-08-24T18:48:00.261Z,1.33
2018-08-24T18:50:28.471Z,1.87
2018-08-24T18:52:56.653Z,1.57
2018-08-24T18:55:24.840Z,1.63
2018-08-24T18:57:53.093Z,1.03
2018-08-24T19:00:21.181Z,1.50
2018-08-24T19:02:49.350Z,1.20
2018-08-24T19:05:17.551Z,1.17
2018-08-24T19:07:45.696Z,1.57
2018-08-24T19:10:13.608Z,1.80
2018-08-24T19:12:41.813Z,1.20
2018-08-24T19:15:10.003Z,1.00
2018-08-24T19:17:43.590Z,1.23
2018-08-24T19:20:17.077Z,1.00
2018-08-24T19:22:50.261Z,0.97
2018-08-24T19:25:18.536Z,0.97
2018-08-24T19:27:52.126Z,1.73
2018-08-24T19:30:25.741Z,1.60
2018-08-24T19:32:53.933Z,1.07
2018-08-24T19:35:22.089Z,1.20
2018-08-24T19:37:50.032Z,1.40
2018-08-24T19:40:23.745Z,1.23
2018-08-24T19:42:51.925Z,1.27
2018-08-24T19:45:20.103Z,1.30
2018-08-24T19:47:53.667Z,1.47
2018-08-24T19:50:21.609Z,0.87
2018-08-24T19:52:49.553Z,1.70
2018-08-24T19:55:17.468Z,1.30
2018-08-24T19:57:50.796Z,1.20
2018-08-24T20:00:21.997Z,1.20
2018-08-24T20:02:49.960Z,1.13
2018-08-24T20:05:18.121Z,1.00
2018-08-24T20:07:51.697Z,0.80
2018-08-24T20:10:19.905Z,1.40
2018-08-24T20:12:48.525Z,0.93
2018-08-24T20:15:21.998Z,0.83
2018-08-24T20:17:50.189Z,0.77
2018-08-24T20:20:18.348Z,1.00
2018-08-24T20:22:46.288Z,1.13
2018-08-24T20:25:14.458Z,1.00
2018-08-24T20:27:42.608Z,1.00
2018-08-24T20:30:10.550Z,1.20
2018-08-24T20:32:38.746Z,1.40
2018-08-24T20:35:06.891Z,1.00
2018-08-24T20:37:35.072Z,1.10
2018-08-24T20:40:03.276Z,0.80
2018-08-24T20:42:31.409Z,0.90
2018-08-24T20:44:59.612Z,1.10
2018-08-24T20:47:27.554Z,0.90
2018-08-24T20:49:55.678Z,1.10
2018-08-24T20:52:23.840Z,1.00
2018-08-24T20:54:51.745Z,1.50
2018-08-24T20:57:19.917Z,0.90
2018-08-24T20:59:47.835Z,1.00
2018-08-24T21:02:16.021Z,0.90
2018-08-24T21:04:44.188Z,0.83
2018-08-24T21:07:12.373Z,1.73
2018-08-24T21:09:40.533Z,1.07
2018-08-24T21:12:08.692Z,1.23
2018-08-24T21:14:36.917Z,1.20
2018-08-24T21:17:04.771Z,0.83
2018-08-24T21:19:32.928Z,1.13
2018-08-24T21:22:01.089Z,1.00
2018-08-24T21:24:29.028Z,1.63
2018-08-24T21:26:56.964Z,0.80
2018-08-24T21:29:25.128Z,0.70
2018-08-24T21:31:54.100Z,0.97
2018-08-24T21:34:22.261Z,1.00
2018-08-24T21:36:50.161Z,0.60
2018-08-24T21:39:18.325Z,0.60
2018-08-24T21:41:46.479Z,1.10
2018-08-24T21:44:14.661Z,0.70
2018-08-24T21:46:42.805Z,1.07
2018-08-24T21:49:10.709Z,1.27
2018-08-24T21:51:38.878Z,0.93
2018-08-24T21:54:07.209Z,0.90
2018-08-24T21:56:35.361Z,1.20
2018-08-24T21:59:03.521Z,0.80
